sensor_id;sensor_type;location;lat;lon;timestamp;temperature;humidity
24468;DHT22;12634;50.852;5.676;2023-05-02T00:01:20;9.90;99.90
24468;DHT22;12634;50.852;5.676;2023-05-02T00:03:48;10.00;99.90
24468;DHT22;12634;50.852;5.676;2023-05-02T00:06:15;10.10;99.90
24468;DHT22;12634;50.852;5.676;2023-05-02T00:08:42;10.30;99.90
24468;DHT22;12634;50.852;5.676;2023-05-02T00:11:09;10.30;99.90
24468;DHT22;12634;50.852;5.676;2023-05-02T00:13:37;10.30;99.90
24468;DHT22;12634;50.852;5.676;2023-05-02T00:16:05;10.40;99.90
24468;DHT22;12634;50.852;5.676;2023-05-02T00:18:32;10.40;99.90
24468;DHT22;12634;50.852;5.676;2023-05-02T00:21:00;10.40;99.90
24468;DHT22;12634;50.852;5.676;2023-05-02T00:23:27;10.50;99.90
24468;DHT22;12634;50.852;5.676;2023-05-02T00:25:54;10.50;99.90
24468;DHT22;12634;50.852;5.676;2023-05-02T00:28:21;10.50;99.90
24468;DHT22;12634;50.852;5.676;2023-05-02T00:30:48;10.60;99.90
24468;DHT22;12634;50.852;5.676;2023-05-02T00:33:16;10.60;99.90
24468;DHT22;12634;50.852;5.676;2023-05-02T00:35:44;10.60;99.90
24468;DHT22;12634;50.852;5.676;2023-05-02T00:38:11;10.70;99.90
24468;DHT22;12634;50.852;5.676;2023-05-02T00:40:45;10.80;99.90
24468;DHT22;12634;50.852;5.676;2023-05-02T00:43:12;10.70;99.90
24468;DHT22;12634;50.852;5.676;2023-05-02T00:45:41;10.80;99.90
24468;DHT22;12634;50.852;5.676;2023-05-02T00:48:09;10.80;99.90
24468;DHT22;12634;50.852;5.676;2023-05-02T00:50:39;10.80;99.90
24468;DHT22;12634;50.852;5.676;2023-05-02T00:53:06;10.80;99.90
24468;DHT22;12634;50.852;5.676;2023-05-02T00:55:34;10.90;99.90
24468;DHT22;12634;50.852;5.676;2023-05-02T00:58:02;10.90;99.90
24468;DHT22;12634;50.852;5.676;2023-05-02T01:00:39;10.90;99.90
24468;DHT22;12634;50.852;5.676;2023-05-02T01:03:16;10.90;99.90
24468;DHT22;12634;50.852;5.676;2023-05-02T01:05:58;10.90;99.90
24468;DHT22;12634;50.852;5.676;2023-05-02T01:08:33;10.90;99.90
24468;DHT22;12634;50.852;5.676;2023-05-02T01:11:06;10.90;99.90
24468;DHT22;12634;50.852;5.676;2023-05-02T01:13:37;10.90;99.90
24468;DHT22;12634;50.852;5.676;2023-05-02T01:16:07;10.90;99.90
24468;DHT22;12634;50.852;5.676;2023-05-02T01:18:39;10.90;99.90
24468;DHT22;12634;50.852;5.676;2023-05-02T01:21:09;10.90;99.90
24468;DHT22;12634;50.852;5.676;2023-05-02T01:23:46;10.90;99.90
24468;DHT22;12634;50.852;5.676;2023-05-02T01:26:26;10.90;99.90
24468;DHT22;12634;50.852;5.676;2023-05-02T01:28:58;11.00;99.90
24468;DHT22;12634;50.852;5.676;2023-05-02T01:31:29;11.00;99.90
24468;DHT22;12634;50.852;5.676;2023-05-02T01:33:58;11.00;99.90
24468;DHT22;12634;50.852;5.676;2023-05-02T01:36:29;11.00;99.90
24468;DHT22;12634;50.852;5.676;2023-05-02T01:38:59;11.00;99.90
24468;DHT22;12634;50.852;5.676;2023-05-02T01:41:30;11.00;99.90
24468;DHT22;12634;50.852;5.676;2023-05-02T01:44:01;11.00;99.90
24468;DHT22;12634;50.852;5.676;2023-05-02T01:46:31;11.00;99.90
24468;DHT22;12634;50.852;5.676;2023-05-02T01:49:02;11.00;99.90
24468;DHT22;12634;50.852;5.676;2023-05-02T01:51:32;11.00;99.90
24468;DHT22;12634;50.852;5.676;2023-05-02T01:54:02;11.00;99.90
24468;DHT22;12634;50.852;5.676;2023-05-02T01:56:31;11.00;99.90
24468;DHT22;12634;50.852;5.676;2023-05-02T01:59:01;10.90;99.90
24468;DHT22;12634;50.852;5.676;2023-05-02T02:01:30;10.90;99.90
24468;DHT22;12634;50.852;5.676;2023-05-02T02:03:59;10.90;99.90
24468;DHT22;12634;50.852;5.676;2023-05-02T02:06:26;10.90;99.90
24468;DHT22;12634;50.852;5.676;2023-05-02T02:08:53;10.90;99.90
24468;DHT22;12634;50.852;5.676;2023-05-02T02:11:26;11.00;99.90
24468;DHT22;12634;50.852;5.676;2023-05-02T02:14:04;11.00;99.90
24468;DHT22;12634;50.852;5.676;2023-05-02T02:16:33;11.00;99.90
24468;DHT22;12634;50.852;5.676;2023-05-02T02:19:07;11.00;99.90
24468;DHT22;12634;50.852;5.676;2023-05-02T02:21:36;11.00;99.90
24468;DHT22;12634;50.852;5.676;2023-05-02T02:24:06;10.90;99.90
24468;DHT22;12634;50.852;5.676;2023-05-02T02:26:34;11.00;99.90
24468;DHT22;12634;50.852;5.676;2023-05-02T02:29:03;11.10;99.90
24468;DHT22;12634;50.852;5.676;2023-05-02T02:31:31;11.10;99.90
24468;DHT22;12634;50.852;5.676;2023-05-02T02:33:59;11.10;99.90
24468;DHT22;12634;50.852;5.676;2023-05-02T02:36:32;11.00;99.90
24468;DHT22;12634;50.852;5.676;2023-05-02T02:39:11;11.00;99.90
24468;DHT22;12634;50.852;5.676;2023-05-02T02:41:42;11.00;99.90
24468;DHT22;12634;50.852;5.676;2023-05-02T02:44:17;11.00;99.90
24468;DHT22;12634;50.852;5.676;2023-05-02T02:46:50;11.00;99.90
24468;DHT22;12634;50.852;5.676;2023-05-02T02:49:28;11.10;99.90
24468;DHT22;12634;50.852;5.676;2023-05-02T02:52:02;11.00;99.90
24468;DHT22;12634;50.852;5.676;2023-05-02T02:54:34;11.00;99.90
24468;DHT22;12634;50.852;5.676;2023-05-02T02:57:06;11.00;99.90
24468;DHT22;12634;50.852;5.676;2023-05-02T02:59:39;11.00;99.90
24468;DHT22;12634;50.852;5.676;2023-05-02T03:02:08;11.00;99.90
24468;DHT22;12634;50.852;5.676;2023-05-02T03:04:40;11.00;99.90
24468;DHT22;12634;50.852;5.676;2023-05-02T03:07:08;11.00;99.90
24468;DHT22;12634;50.852;5.676;2023-05-02T03:09:42;11.00;99.90
24468;DHT22;12634;50.852;5.676;2023-05-02T03:12:09;11.10;99.90
24468;DHT22;12634;50.852;5.676;2023-05-02T03:14:38;11.10;99.90
24468;DHT22;12634;50.852;5.676;2023-05-02T03:17:06;11.00;99.90
24468;DHT22;12634;50.852;5.676;2023-05-02T03:19:34;11.00;99.90
24468;DHT22;12634;50.852;5.676;2023-05-02T03:22:01;11.10;99.90
24468;DHT22;12634;50.852;5.676;2023-05-02T03:24:28;11.00;99.90
24468;DHT22;12634;50.852;5.676;2023-05-02T03:26:56;11.10;99.90
24468;DHT22;12634;50.852;5.676;2023-05-02T03:29:24;11.00;99.90
24468;DHT22;12634;50.852;5.676;2023-05-02T03:31:52;11.00;99.90
24468;DHT22;12634;50.852;5.676;2023-05-02T03:34:19;11.10;99.90
24468;DHT22;12634;50.852;5.676;2023-05-02T03:36:47;11.10;99.90
24468;DHT22;12634;50.852;5.676;2023-05-02T03:39:15;11.00;99.90
24468;DHT22;12634;50.852;5.676;2023-05-02T03:41:42;11.10;99.90
24468;DHT22;12634;50.852;5.676;2023-05-02T03:44:09;11.10;99.90
24468;DHT22;12634;50.852;5.676;2023-05-02T03:46:36;11.10;99.90
24468;DHT22;12634;50.852;5.676;2023-05-02T03:49:05;11.00;99.90
24468;DHT22;12634;50.852;5.676;2023-05-02T03:51:32;11.10;99.90
24468;DHT22;12634;50.852;5.676;2023-05-02T03:54:00;11.10;99.90
24468;DHT22;12634;50.852;5.676;2023-05-02T03:56:27;11.10;99.90
24468;DHT22;12634;50.852;5.676;2023-05-02T03:58:54;11.00;99.90
24468;DHT22;12634;50.852;5.676;2023-05-02T04:01:22;11.00;99.90
24468;DHT22;12634;50.852;5.676;2023-05-02T04:03:50;11.10;99.90
24468;DHT22;12634;50.852;5.676;2023-05-02T04:06:19;11.10;99.90
24468;DHT22;12634;50.852;5.676;2023-05-02T04:08:46;11.00;99.90
24468;DHT22;12634;50.852;5.676;2023-05-02T04:11:14;11.00;99.90
24468;DHT22;12634;50.852;5.676;2023-05-02T04:13:41;11.00;99.90
24468;DHT22;12634;50.852;5.676;2023-05-02T04:16:08;11.10;99.90
24468;DHT22;12634;50.852;5.676;2023-05-02T04:18:35;11.10;99.90
24468;DHT22;12634;50.852;5.676;2023-05-02T04:21:03;11.10;99.90
24468;DHT22;12634;50.852;5.676;2023-05-02T04:23:32;11.10;99.90
24468;DHT22;12634;50.852;5.676;2023-05-02T04:25:59;11.00;99.90
24468;DHT22;12634;50.852;5.676;2023-05-02T04:28:26;10.90;99.90
24468;DHT22;12634;50.852;5.676;2023-05-02T04:30:53;10.80;99.90
24468;DHT22;12634;50.852;5.676;2023-05-02T04:33:20;10.60;99.90
24468;DHT22;12634;50.852;5.676;2023-05-02T04:35:47;10.60;99.90
24468;DHT22;12634;50.852;5.676;2023-05-02T04:38:14;10.50;99.90
24468;DHT22;12634;50.852;5.676;2023-05-02T04:40:43;10.50;99.90
24468;DHT22;12634;50.852;5.676;2023-05-02T04:43:10;10.40;99.90
24468;DHT22;12634;50.852;5.676;2023-05-02T04:45:38;10.40;99.90
24468;DHT22;12634;50.852;5.676;2023-05-02T04:48:05;10.30;99.90
24468;DHT22;12634;50.852;5.676;2023-05-02T04:50:32;10.30;99.90
24468;DHT22;12634;50.852;5.676;2023-05-02T04:52:59;10.30;99.90
24468;DHT22;12634;50.852;5.676;2023-05-02T04:55:26;10.30;99.90
24468;DHT22;12634;50.852;5.676;2023-05-02T04:57:55;10.30;99.90
24468;DHT22;12634;50.852;5.676;2023-05-02T05:00:22;10.30;99.90
24468;DHT22;12634;50.852;5.676;2023-05-02T05:02:49;10.40;99.90
24468;DHT22;12634;50.852;5.676;2023-05-02T05:05:16;10.40;99.90
24468;DHT22;12634;50.852;5.676;2023-05-02T05:07:43;10.40;99.90
24468;DHT22;12634;50.852;5.676;2023-05-02T05:10:11;10.40;99.90
24468;DHT22;12634;50.852;5.676;2023-05-02T05:12:38;10.40;99.90
24468;DHT22;12634;50.852;5.676;2023-05-02T05:15:08;10.40;99.90
24468;DHT22;12634;50.852;5.676;2023-05-02T05:17:36;10.40;99.90
24468;DHT22;12634;50.852;5.676;2023-05-02T05:20:04;10.40;99.90
24468;DHT22;12634;50.852;5.676;2023-05-02T05:22:37;10.40;99.90
24468;DHT22;12634;50.852;5.676;2023-05-02T05:25:07;10.40;99.90
24468;DHT22;12634;50.852;5.676;2023-05-02T05:27:34;10.40;99.90
24468;DHT22;12634;50.852;5.676;2023-05-02T05:30:02;10.40;99.90
24468;DHT22;12634;50.852;5.676;2023-05-02T05:32:32;10.50;99.90
24468;DHT22;12634;50.852;5.676;2023-05-02T05:34:59;10.50;99.90
24468;DHT22;12634;50.852;5.676;2023-05-02T05:37:26;10.50;99.90
24468;DHT22;12634;50.852;5.676;2023-05-02T05:39:53;10.50;99.90
24468;DHT22;12634;50.852;5.676;2023-05-02T05:42:20;10.60;99.90
24468;DHT22;12634;50.852;5.676;2023-05-02T05:44:48;10.70;99.90
24468;DHT22;12634;50.852;5.676;2023-05-02T05:47:18;10.80;99.90
24468;DHT22;12634;50.852;5.676;2023-05-02T05:49:51;10.80;99.90
24468;DHT22;12634;50.852;5.676;2023-05-02T05:52:19;10.80;99.90
24468;DHT22;12634;50.852;5.676;2023-05-02T05:54:46;10.90;99.90
24468;DHT22;12634;50.852;5.676;2023-05-02T05:57:13;10.90;99.90
24468;DHT22;12634;50.852;5.676;2023-05-02T05:59:40;11.00;99.90
24468;DHT22;12634;50.852;5.676;2023-05-02T06:02:07;11.00;99.90
24468;DHT22;12634;50.852;5.676;2023-05-02T06:04:35;11.10;99.90
24468;DHT22;12634;50.852;5.676;2023-05-02T06:07:04;11.10;99.90
24468;DHT22;12634;50.852;5.676;2023-05-02T06:09:31;11.10;99.90
24468;DHT22;12634;50.852;5.676;2023-05-02T06:11:58;11.20;99.90
24468;DHT22;12634;50.852;5.676;2023-05-02T06:14:27;11.30;99.90
24468;DHT22;12634;50.852;5.676;2023-05-02T06:16:54;11.40;99.90
24468;DHT22;12634;50.852;5.676;2023-05-02T06:19:21;11.40;99.90
24468;DHT22;12634;50.852;5.676;2023-05-02T06:21:48;11.30;99.90
24468;DHT22;12634;50.852;5.676;2023-05-02T06:24:17;11.40;99.90
24468;DHT22;12634;50.852;5.676;2023-05-02T06:26:44;11.40;99.90
24468;DHT22;12634;50.852;5.676;2023-05-02T06:29:11;11.50;99.90
24468;DHT22;12634;50.852;5.676;2023-05-02T06:31:39;11.50;99.90
24468;DHT22;12634;50.852;5.676;2023-05-02T06:34:06;11.40;99.90
24468;DHT22;12634;50.852;5.676;2023-05-02T06:36:33;11.30;99.90
24468;DHT22;12634;50.852;5.676;2023-05-02T06:39:00;11.20;99.90
24468;DHT22;12634;50.852;5.676;2023-05-02T06:41:29;11.20;99.90
24468;DHT22;12634;50.852;5.676;2023-05-02T06:43:56;11.30;99.90
24468;DHT22;12634;50.852;5.676;2023-05-02T06:46:23;11.30;99.90
24468;DHT22;12634;50.852;5.676;2023-05-02T06:48:54;11.50;99.90
24468;DHT22;12634;50.852;5.676;2023-05-02T06:51:21;11.70;99.90
24468;DHT22;12634;50.852;5.676;2023-05-02T06:53:48;11.90;99.90
24468;DHT22;12634;50.852;5.676;2023-05-02T06:56:15;12.00;99.90
24468;DHT22;12634;50.852;5.676;2023-05-02T06:58:43;12.00;99.90
24468;DHT22;12634;50.852;5.676;2023-05-02T07:01:11;11.90;99.90
24468;DHT22;12634;50.852;5.676;2023-05-02T07:03:38;11.90;99.90
24468;DHT22;12634;50.852;5.676;2023-05-02T07:06:05;11.80;99.90
24468;DHT22;12634;50.852;5.676;2023-05-02T07:08:32;11.60;99.90
24468;DHT22;12634;50.852;5.676;2023-05-02T07:10:59;11.40;99.90
24468;DHT22;12634;50.852;5.676;2023-05-02T07:13:27;11.40;99.90
24468;DHT22;12634;50.852;5.676;2023-05-02T07:15:55;11.40;99.90
24468;DHT22;12634;50.852;5.676;2023-05-02T07:18:23;11.30;99.90
24468;DHT22;12634;50.852;5.676;2023-05-02T07:20:50;11.40;99.90
24468;DHT22;12634;50.852;5.676;2023-05-02T07:23:17;11.20;99.90
24468;DHT22;12634;50.852;5.676;2023-05-02T07:25:46;11.30;99.90
24468;DHT22;12634;50.852;5.676;2023-05-02T07:28:13;11.50;99.90
24468;DHT22;12634;50.852;5.676;2023-05-02T07:30:41;11.40;99.90
24468;DHT22;12634;50.852;5.676;2023-05-02T07:33:09;11.50;99.90
24468;DHT22;12634;50.852;5.676;2023-05-02T07:35:36;11.80;99.90
24468;DHT22;12634;50.852;5.676;2023-05-02T07:38:03;12.00;99.90
24468;DHT22;12634;50.852;5.676;2023-05-02T07:40:30;12.20;99.90
24468;DHT22;12634;50.852;5.676;2023-05-02T07:43:00;12.90;99.90
24468;DHT22;12634;50.852;5.676;2023-05-02T07:45:27;13.10;99.90
24468;DHT22;12634;50.852;5.676;2023-05-02T07:47:54;13.10;99.90
24468;DHT22;12634;50.852;5.676;2023-05-02T07:50:23;12.90;99.90
24468;DHT22;12634;50.852;5.676;2023-05-02T07:52:50;12.50;99.90
24468;DHT22;12634;50.852;5.676;2023-05-02T07:55:18;12.60;99.90
24468;DHT22;12634;50.852;5.676;2023-05-02T07:57:46;12.90;99.90
24468;DHT22;12634;50.852;5.676;2023-05-02T08:00:14;13.60;99.90
24468;DHT22;12634;50.852;5.676;2023-05-02T08:02:41;14.00;99.90
24468;DHT22;12634;50.852;5.676;2023-05-02T08:05:09;14.30;99.90
24468;DHT22;12634;50.852;5.676;2023-05-02T08:07:38;15.40;99.90
24468;DHT22;12634;50.852;5.676;2023-05-02T08:10:06;16.50;99.90
24468;DHT22;12634;50.852;5.676;2023-05-02T08:12:37;16.60;99.90
24468;DHT22;12634;50.852;5.676;2023-05-02T08:15:06;16.80;99.90
24468;DHT22;12634;50.852;5.676;2023-05-02T08:17:34;17.00;99.90
24468;DHT22;12634;50.852;5.676;2023-05-02T08:20:01;17.50;99.90
24468;DHT22;12634;50.852;5.676;2023-05-02T08:22:28;17.30;99.90
24468;DHT22;12634;50.852;5.676;2023-05-02T08:24:57;17.30;99.90
24468;DHT22;12634;50.852;5.676;2023-05-02T08:27:24;17.70;99.90
24468;DHT22;12634;50.852;5.676;2023-05-02T08:29:51;17.80;99.90
24468;DHT22;12634;50.852;5.676;2023-05-02T08:32:18;16.70;99.90
24468;DHT22;12634;50.852;5.676;2023-05-02T08:34:45;15.80;99.90
24468;DHT22;12634;50.852;5.676;2023-05-02T08:37:12;14.90;99.90
24468;DHT22;12634;50.852;5.676;2023-05-02T08:39:40;16.00;99.90
24468;DHT22;12634;50.852;5.676;2023-05-02T08:42:08;16.40;99.90
24468;DHT22;12634;50.852;5.676;2023-05-02T08:44:36;15.90;99.90
24468;DHT22;12634;50.852;5.676;2023-05-02T08:47:04;15.60;99.90
24468;DHT22;12634;50.852;5.676;2023-05-02T08:49:34;15.40;99.90
24468;DHT22;12634;50.852;5.676;2023-05-02T08:52:02;16.70;99.90
24468;DHT22;12634;50.852;5.676;2023-05-02T08:54:32;16.70;99.90
24468;DHT22;12634;50.852;5.676;2023-05-02T08:57:00;16.70;99.90
24468;DHT22;12634;50.852;5.676;2023-05-02T08:59:30;16.10;99.90
24468;DHT22;12634;50.852;5.676;2023-05-02T09:02:02;15.70;99.90
24468;DHT22;12634;50.852;5.676;2023-05-02T09:04:31;15.50;99.90
24468;DHT22;12634;50.852;5.676;2023-05-02T09:07:00;15.60;99.90
24468;DHT22;12634;50.852;5.676;2023-05-02T09:09:28;14.90;99.90
24468;DHT22;12634;50.852;5.676;2023-05-02T09:11:56;15.30;99.90
24468;DHT22;12634;50.852;5.676;2023-05-02T09:14:23;15.60;99.90
24468;DHT22;12634;50.852;5.676;2023-05-02T09:16:57;15.00;99.90
24468;DHT22;12634;50.852;5.676;2023-05-02T09:19:25;15.10;99.90
24468;DHT22;12634;50.852;5.676;2023-05-02T09:21:59;17.10;99.90
24468;DHT22;12634;50.852;5.676;2023-05-02T09:24:27;19.40;99.90
24468;DHT22;12634;50.852;5.676;2023-05-02T09:26:57;19.20;99.90
24468;DHT22;12634;50.852;5.676;2023-05-02T09:29:26;18.40;99.90
24468;DHT22;12634;50.852;5.676;2023-05-02T09:31:56;17.80;99.90
24468;DHT22;12634;50.852;5.676;2023-05-02T09:34:23;17.40;99.90
24468;DHT22;12634;50.852;5.676;2023-05-02T09:36:51;16.60;99.90
24468;DHT22;12634;50.852;5.676;2023-05-02T09:39:20;16.10;99.90
24468;DHT22;12634;50.852;5.676;2023-05-02T09:41:48;16.40;99.90
24468;DHT22;12634;50.852;5.676;2023-05-02T09:44:17;16.30;99.90
24468;DHT22;12634;50.852;5.676;2023-05-02T09:46:45;15.90;99.90
24468;DHT22;12634;50.852;5.676;2023-05-02T09:49:14;15.70;99.90
24468;DHT22;12634;50.852;5.676;2023-05-02T09:51:44;15.70;99.90
24468;DHT22;12634;50.852;5.676;2023-05-02T09:54:12;16.10;99.90
24468;DHT22;12634;50.852;5.676;2023-05-02T09:56:52;16.80;99.90
24468;DHT22;12634;50.852;5.676;2023-05-02T09:59:21;16.70;99.90
24468;DHT22;12634;50.852;5.676;2023-05-02T10:01:54;16.00;99.90
24468;DHT22;12634;50.852;5.676;2023-05-02T10:04:24;15.90;99.90
24468;DHT22;12634;50.852;5.676;2023-05-02T10:06:53;15.90;99.90
24468;DHT22;12634;50.852;5.676;2023-05-02T10:09:21;16.10;99.90
24468;DHT22;12634;50.852;5.676;2023-05-02T10:11:51;16.10;99.90
24468;DHT22;12634;50.852;5.676;2023-05-02T10:14:19;15.60;99.90
24468;DHT22;12634;50.852;5.676;2023-05-02T10:16:54;16.20;99.90
24468;DHT22;12634;50.852;5.676;2023-05-02T10:19:29;16.30;99.90
24468;DHT22;12634;50.852;5.676;2023-05-02T10:21:58;15.40;99.90
24468;DHT22;12634;50.852;5.676;2023-05-02T10:24:26;15.30;99.90
24468;DHT22;12634;50.852;5.676;2023-05-02T10:26:54;15.60;99.90
24468;DHT22;12634;50.852;5.676;2023-05-02T10:29:21;15.90;99.90
24468;DHT22;12634;50.852;5.676;2023-05-02T10:31:49;16.60;99.90
24468;DHT22;12634;50.852;5.676;2023-05-02T10:34:18;17.50;99.90
24468;DHT22;12634;50.852;5.676;2023-05-02T10:36:47;17.30;99.90
24468;DHT22;12634;50.852;5.676;2023-05-02T10:39:14;17.70;99.90
24468;DHT22;12634;50.852;5.676;2023-05-02T10:41:42;19.80;99.90
24468;DHT22;12634;50.852;5.676;2023-05-02T10:44:10;19.50;99.90
24468;DHT22;12634;50.852;5.676;2023-05-02T10:46:38;17.80;99.90
24468;DHT22;12634;50.852;5.676;2023-05-02T10:49:07;16.00;99.90
24468;DHT22;12634;50.852;5.676;2023-05-02T10:51:36;15.30;99.90
24468;DHT22;12634;50.852;5.676;2023-05-02T10:54:21;15.00;99.90
24468;DHT22;12634;50.852;5.676;2023-05-02T10:57:09;15.00;99.90
24468;DHT22;12634;50.852;5.676;2023-05-02T10:59:38;15.70;99.90
24468;DHT22;12634;50.852;5.676;2023-05-02T11:05:07;16.70;99.90
24468;DHT22;12634;50.852;5.676;2023-05-02T11:07:35;16.60;99.90
24468;DHT22;12634;50.852;5.676;2023-05-02T11:10:26;16.50;99.90
24468;DHT22;12634;50.852;5.676;2023-05-02T11:12:55;16.70;99.90
24468;DHT22;12634;50.852;5.676;2023-05-02T11:15:55;16.40;99.90
24468;DHT22;12634;50.852;5.676;2023-05-02T11:18:25;17.00;99.90
24468;DHT22;12634;50.852;5.676;2023-05-02T11:21:25;17.50;99.90
24468;DHT22;12634;50.852;5.676;2023-05-02T11:24:35;18.20;99.90
24468;DHT22;12634;50.852;5.676;2023-05-02T11:27:37;17.40;99.90
24468;DHT22;12634;50.852;5.676;2023-05-02T11:30:07;17.90;99.90
24468;DHT22;12634;50.852;5.676;2023-05-02T11:35:53;16.60;99.90
24468;DHT22;12634;50.852;5.676;2023-05-02T11:38:21;16.80;99.90
24468;DHT22;12634;50.852;5.676;2023-05-02T11:40:52;17.50;99.90
24468;DHT22;12634;50.852;5.676;2023-05-02T11:43:22;17.90;99.90
24468;DHT22;12634;50.852;5.676;2023-05-02T11:45:50;17.10;99.90
24468;DHT22;12634;50.852;5.676;2023-05-02T11:48:18;17.00;99.90
24468;DHT22;12634;50.852;5.676;2023-05-02T11:50:50;16.80;99.90
24468;DHT22;12634;50.852;5.676;2023-05-02T11:53:19;16.60;99.90
24468;DHT22;12634;50.852;5.676;2023-05-02T11:55:49;16.50;99.90
24468;DHT22;12634;50.852;5.676;2023-05-02T11:58:18;16.30;99.90
24468;DHT22;12634;50.852;5.676;2023-05-02T12:00:47;16.50;99.90
24468;DHT22;12634;50.852;5.676;2023-05-02T12:03:22;16.90;99.90
24468;DHT22;12634;50.852;5.676;2023-05-02T12:05:50;17.40;99.90
24468;DHT22;12634;50.852;5.676;2023-05-02T12:08:23;16.80;99.90
24468;DHT22;12634;50.852;5.676;2023-05-02T12:10:51;16.30;99.90
24468;DHT22;12634;50.852;5.676;2023-05-02T12:13:20;16.20;99.90
24468;DHT22;12634;50.852;5.676;2023-05-02T12:15:50;16.20;99.90
24468;DHT22;12634;50.852;5.676;2023-05-02T12:18:18;16.10;99.90
24468;DHT22;12634;50.852;5.676;2023-05-02T12:20:48;15.80;99.90
24468;DHT22;12634;50.852;5.676;2023-05-02T12:23:16;15.80;99.90
24468;DHT22;12634;50.852;5.676;2023-05-02T12:25:44;16.10;99.90
24468;DHT22;12634;50.852;5.676;2023-05-02T12:28:11;15.90;99.90
24468;DHT22;12634;50.852;5.676;2023-05-02T12:30:38;15.90;99.90
24468;DHT22;12634;50.852;5.676;2023-05-02T12:33:08;15.90;99.90
24468;DHT22;12634;50.852;5.676;2023-05-02T12:35:35;16.20;99.90
24468;DHT22;12634;50.852;5.676;2023-05-02T12:38:10;16.30;99.90
24468;DHT22;12634;50.852;5.676;2023-05-02T12:40:38;16.30;99.90
24468;DHT22;12634;50.852;5.676;2023-05-02T12:43:05;16.40;99.90
24468;DHT22;12634;50.852;5.676;2023-05-02T12:45:35;16.10;99.90
24468;DHT22;12634;50.852;5.676;2023-05-02T12:48:19;16.30;99.90
24468;DHT22;12634;50.852;5.676;2023-05-02T12:50:46;16.40;99.90
24468;DHT22;12634;50.852;5.676;2023-05-02T12:53:14;16.30;99.90
24468;DHT22;12634;50.852;5.676;2023-05-02T12:55:41;16.30;99.90
24468;DHT22;12634;50.852;5.676;2023-05-02T12:58:10;17.20;99.90
24468;DHT22;12634;50.852;5.676;2023-05-02T13:00:39;18.10;99.90
24468;DHT22;12634;50.852;5.676;2023-05-02T13:03:07;18.00;99.90
24468;DHT22;12634;50.852;5.676;2023-05-02T13:05:36;18.10;99.90
24468;DHT22;12634;50.852;5.676;2023-05-02T13:08:04;17.70;99.90
24468;DHT22;12634;50.852;5.676;2023-05-02T13:10:31;16.60;99.90
24468;DHT22;12634;50.852;5.676;2023-05-02T13:12:58;16.10;99.90
24468;DHT22;12634;50.852;5.676;2023-05-02T13:15:26;15.40;99.90
24468;DHT22;12634;50.852;5.676;2023-05-02T13:17:53;15.90;99.90
24468;DHT22;12634;50.852;5.676;2023-05-02T13:20:20;16.30;99.90
24468;DHT22;12634;50.852;5.676;2023-05-02T13:22:49;17.60;99.90
24468;DHT22;12634;50.852;5.676;2023-05-02T13:25:16;18.80;99.90
24468;DHT22;12634;50.852;5.676;2023-05-02T13:27:44;18.80;99.90
24468;DHT22;12634;50.852;5.676;2023-05-02T13:30:11;18.30;99.90
24468;DHT22;12634;50.852;5.676;2023-05-02T13:32:39;16.90;99.90
24468;DHT22;12634;50.852;5.676;2023-05-02T13:35:07;16.90;99.90
24468;DHT22;12634;50.852;5.676;2023-05-02T13:37:34;18.00;99.90
24468;DHT22;12634;50.852;5.676;2023-05-02T13:40:04;17.60;99.90
24468;DHT22;12634;50.852;5.676;2023-05-02T13:42:31;16.90;99.90
24468;DHT22;12634;50.852;5.676;2023-05-02T13:44:59;17.70;99.90
24468;DHT22;12634;50.852;5.676;2023-05-02T13:47:28;17.40;99.90
24468;DHT22;12634;50.852;5.676;2023-05-02T13:49:55;17.90;99.90
24468;DHT22;12634;50.852;5.676;2023-05-02T13:52:22;19.30;99.90
24468;DHT22;12634;50.852;5.676;2023-05-02T13:54:50;18.70;99.90
24468;DHT22;12634;50.852;5.676;2023-05-02T13:57:18;17.80;99.90
24468;DHT22;12634;50.852;5.676;2023-05-02T13:59:45;19.10;99.90
24468;DHT22;12634;50.852;5.676;2023-05-02T14:02:12;20.20;99.90
24468;DHT22;12634;50.852;5.676;2023-05-02T14:04:40;18.80;99.90
24468;DHT22;12634;50.852;5.676;2023-05-02T14:07:07;17.90;99.90
24468;DHT22;12634;50.852;5.676;2023-05-02T14:09:34;18.60;99.90
24468;DHT22;12634;50.852;5.676;2023-05-02T14:12:01;19.20;99.90
24468;DHT22;12634;50.852;5.676;2023-05-02T14:14:29;20.00;99.90
24468;DHT22;12634;50.852;5.676;2023-05-02T14:16:56;20.10;99.90
24468;DHT22;12634;50.852;5.676;2023-05-02T14:19:24;20.80;99.90
24468;DHT22;12634;50.852;5.676;2023-05-02T14:21:51;19.90;99.90
24468;DHT22;12634;50.852;5.676;2023-05-02T14:24:18;19.90;99.90
24468;DHT22;12634;50.852;5.676;2023-05-02T14:26:45;19.70;99.90
24468;DHT22;12634;50.852;5.676;2023-05-02T14:29:12;20.20;99.90
24468;DHT22;12634;50.852;5.676;2023-05-02T14:31:41;21.00;99.90
24468;DHT22;12634;50.852;5.676;2023-05-02T14:34:08;20.80;99.30
24468;DHT22;12634;50.852;5.676;2023-05-02T14:36:35;20.70;99.90
24468;DHT22;12634;50.852;5.676;2023-05-02T14:39:02;21.10;99.90
24468;DHT22;12634;50.852;5.676;2023-05-02T14:41:29;20.40;99.90
24468;DHT22;12634;50.852;5.676;2023-05-02T14:43:56;21.50;99.70
24468;DHT22;12634;50.852;5.676;2023-05-02T14:46:24;21.30;99.90
24468;DHT22;12634;50.852;5.676;2023-05-02T14:48:52;20.00;98.50
24468;DHT22;12634;50.852;5.676;2023-05-02T14:51:19;18.30;99.90
24468;DHT22;12634;50.852;5.676;2023-05-02T14:53:47;17.40;99.90
24468;DHT22;12634;50.852;5.676;2023-05-02T14:56:14;18.70;99.90
24468;DHT22;12634;50.852;5.676;2023-05-02T14:58:43;20.20;99.90
24468;DHT22;12634;50.852;5.676;2023-05-02T15:01:17;20.40;97.70
24468;DHT22;12634;50.852;5.676;2023-05-02T15:03:44;19.90;98.70
24468;DHT22;12634;50.852;5.676;2023-05-02T15:06:15;19.80;99.90
24468;DHT22;12634;50.852;5.676;2023-05-02T15:08:42;19.90;99.90
24468;DHT22;12634;50.852;5.676;2023-05-02T15:11:09;19.90;99.90
24468;DHT22;12634;50.852;5.676;2023-05-02T15:13:37;19.20;99.90
24468;DHT22;12634;50.852;5.676;2023-05-02T15:16:04;18.90;99.90
24468;DHT22;12634;50.852;5.676;2023-05-02T15:18:31;19.20;99.90
24468;DHT22;12634;50.852;5.676;2023-05-02T15:20:59;19.20;99.90
24468;DHT22;12634;50.852;5.676;2023-05-02T15:23:27;19.40;99.90
24468;DHT22;12634;50.852;5.676;2023-05-02T15:25:54;20.80;99.90
24468;DHT22;12634;50.852;5.676;2023-05-02T15:28:21;20.90;98.80
24468;DHT22;12634;50.852;5.676;2023-05-02T15:30:49;20.20;98.00
24468;DHT22;12634;50.852;5.676;2023-05-02T15:33:16;19.70;99.90
24468;DHT22;12634;50.852;5.676;2023-05-02T15:35:51;20.20;99.90
24468;DHT22;12634;50.852;5.676;2023-05-02T15:38:19;20.60;99.90
24468;DHT22;12634;50.852;5.676;2023-05-02T15:40:54;20.60;99.60
24468;DHT22;12634;50.852;5.676;2023-05-02T15:43:21;20.50;98.00
24468;DHT22;12634;50.852;5.676;2023-05-02T15:45:52;20.20;96.60
24468;DHT22;12634;50.852;5.676;2023-05-02T15:48:20;20.40;99.50